sensor_id;sensor_type;location;lat;lon;timestamp;P1;durP1;ratioP1;P2;durP2;ratioP2
28828;SDS011;15966;51.540;11.870;2022-07-29T00:00:03;5.50;;;1.65;;
28828;SDS011;15966;51.540;11.870;2022-07-29T00:02:31;6.70;;;1.65;;
28828;SDS011;15966;51.540;11.870;2022-07-29T00:04:57;3.65;;;1.45;;
28828;SDS011;15966;51.540;11.870;2022-07-29T00:07:23;5.80;;;1.88;;
28828;SDS011;15966;51.540;11.870;2022-07-29T00:09:49;5.78;;;2.10;;
28828;SDS011;15966;51.540;11.870;2022-07-29T00:12:15;6.60;;;2.28;;
28828;SDS011;15966;51.540;11.870;2022-07-29T00:14:41;4.68;;;1.88;;
28828;SDS011;15966;51.540;11.870;2022-07-29T00:17:08;4.05;;;2.15;;
28828;SDS011;15966;51.540;11.870;2022-07-29T00:19:34;5.03;;;2.28;;
28828;SDS011;15966;51.540;11.870;2022-07-29T00:22:00;3.65;;;1.80;;
28828;SDS011;15966;51.540;11.870;2022-07-29T00:24:26;5.20;;;1.70;;
28828;SDS011;15966;51.540;11.870;2022-07-29T00:26:52;5.10;;;1.88;;
28828;SDS011;15966;51.540;11.870;2022-07-29T00:29:19;3.72;;;2.15;;
28828;SDS011;15966;51.540;11.870;2022-07-29T00:31:45;2.90;;;1.58;;
28828;SDS011;15966;51.540;11.870;2022-07-29T00:34:11;4.75;;;1.50;;
28828;SDS011;15966;51.540;11.870;2022-07-29T00:36:56;4.25;;;1.42;;
28828;SDS011;15966;51.540;11.870;2022-07-29T00:39:22;4.88;;;1.67;;
28828;SDS011;15966;51.540;11.870;2022-07-29T00:41:48;5.00;;;1.40;;
28828;SDS011;15966;51.540;11.870;2022-07-29T00:44:14;3.13;;;1.80;;
28828;SDS011;15966;51.540;11.870;2022-07-29T00:46:40;6.32;;;1.80;;
28828;SDS011;15966;51.540;11.870;2022-07-29T00:49:06;5.13;;;1.92;;
28828;SDS011;15966;51.540;11.870;2022-07-29T00:51:36;3.47;;;1.70;;
28828;SDS011;15966;51.540;11.870;2022-07-29T00:54:03;4.50;;;1.88;;
28828;SDS011;15966;51.540;11.870;2022-07-29T00:56:29;8.13;;;2.40;;
28828;SDS011;15966;51.540;11.870;2022-07-29T00:58:56;4.07;;;2.00;;
28828;SDS011;15966;51.540;11.870;2022-07-29T01:01:23;6.43;;;1.70;;
28828;SDS011;15966;51.540;11.870;2022-07-29T01:03:49;6.22;;;1.80;;
28828;SDS011;15966;51.540;11.870;2022-07-29T01:06:16;4.57;;;2.15;;
28828;SDS011;15966;51.540;11.870;2022-07-29T01:08:42;8.52;;;1.92;;
28828;SDS011;15966;51.540;11.870;2022-07-29T01:11:09;1.90;;;1.67;;
28828;SDS011;15966;51.540;11.870;2022-07-29T01:13:35;4.10;;;1.55;;
28828;SDS011;15966;51.540;11.870;2022-07-29T01:16:03;3.53;;;1.70;;
28828;SDS011;15966;51.540;11.870;2022-07-29T01:18:37;5.45;;;1.95;;
28828;SDS011;15966;51.540;11.870;2022-07-29T01:23:59;3.75;;;2.05;;
28828;SDS011;15966;51.540;11.870;2022-07-29T01:27:20;5.40;;;1.95;;
28828;SDS011;15966;51.540;11.870;2022-07-29T01:31:56;6.95;;;2.00;;
28828;SDS011;15966;51.540;11.870;2022-07-29T01:37:18;3.58;;;1.52;;
28828;SDS011;15966;51.540;11.870;2022-07-29T01:39:47;2.95;;;1.50;;
28828;SDS011;15966;51.540;11.870;2022-07-29T01:42:30;3.60;;;2.17;;
28828;SDS011;15966;51.540;11.870;2022-07-29T01:45:08;3.17;;;2.70;;
28828;SDS011;15966;51.540;11.870;2022-07-29T01:47:40;4.60;;;1.85;;
28828;SDS011;15966;51.540;11.870;2022-07-29T01:50:28;5.60;;;1.85;;
28828;SDS011;15966;51.540;11.870;2022-07-29T01:53:00;6.63;;;1.80;;
28828;SDS011;15966;51.540;11.870;2022-07-29T01:55:31;2.38;;;1.52;;
28828;SDS011;15966;51.540;11.870;2022-07-29T01:57:59;3.67;;;1.92;;
28828;SDS011;15966;51.540;11.870;2022-07-29T02:00:27;2.63;;;2.10;;
28828;SDS011;15966;51.540;11.870;2022-07-29T02:02:53;2.08;;;1.50;;
28828;SDS011;15966;51.540;11.870;2022-07-29T02:05:21;4.40;;;2.17;;
28828;SDS011;15966;51.540;11.870;2022-07-29T02:10:14;4.38;;;2.03;;
28828;SDS011;15966;51.540;11.870;2022-07-29T02:12:43;6.88;;;2.28;;
28828;SDS011;15966;51.540;11.870;2022-07-29T02:15:10;2.40;;;1.88;;
28828;SDS011;15966;51.540;11.870;2022-07-29T02:18:00;2.30;;;1.80;;
28828;SDS011;15966;51.540;11.870;2022-07-29T02:20:25;5.40;;;1.90;;
28828;SDS011;15966;51.540;11.870;2022-07-29T02:22:52;8.77;;;1.92;;
28828;SDS011;15966;51.540;11.870;2022-07-29T02:25:19;5.07;;;2.25;;
28828;SDS011;15966;51.540;11.870;2022-07-29T02:27:47;2.78;;;2.05;;
28828;SDS011;15966;51.540;11.870;2022-07-29T02:30:15;4.13;;;2.13;;
28828;SDS011;15966;51.540;11.870;2022-07-29T02:32:42;4.13;;;1.85;;
28828;SDS011;15966;51.540;11.870;2022-07-29T02:35:09;7.23;;;2.47;;
28828;SDS011;15966;51.540;11.870;2022-07-29T02:37:36;5.50;;;2.33;;
28828;SDS011;15966;51.540;11.870;2022-07-29T02:40:03;3.38;;;2.30;;
28828;SDS011;15966;51.540;11.870;2022-07-29T02:42:29;6.38;;;2.33;;
28828;SDS011;15966;51.540;11.870;2022-07-29T02:44:57;7.80;;;2.42;;
28828;SDS011;15966;51.540;11.870;2022-07-29T02:47:24;5.47;;;1.85;;
28828;SDS011;15966;51.540;11.870;2022-07-29T02:50:09;5.68;;;1.58;;
28828;SDS011;15966;51.540;11.870;2022-07-29T02:52:39;2.55;;;1.55;;
28828;SDS011;15966;51.540;11.870;2022-07-29T03:01:15;4.75;;;2.03;;
28828;SDS011;15966;51.540;11.870;2022-07-29T03:03:45;5.43;;;1.98;;
28828;SDS011;15966;51.540;11.870;2022-07-29T03:06:12;5.65;;;2.65;;
28828;SDS011;15966;51.540;11.870;2022-07-29T03:08:39;2.40;;;1.90;;
28828;SDS011;15966;51.540;11.870;2022-07-29T03:11:06;3.00;;;1.77;;
28828;SDS011;15966;51.540;11.870;2022-07-29T03:13:33;7.15;;;2.10;;
28828;SDS011;15966;51.540;11.870;2022-07-29T03:16:00;3.33;;;1.60;;
28828;SDS011;15966;51.540;11.870;2022-07-29T03:18:27;3.67;;;2.37;;
28828;SDS011;15966;51.540;11.870;2022-07-29T03:20:53;2.85;;;2.17;;
28828;SDS011;15966;51.540;11.870;2022-07-29T03:23:20;10.18;;;2.03;;
28828;SDS011;15966;51.540;11.870;2022-07-29T03:25:49;2.53;;;1.85;;
28828;SDS011;15966;51.540;11.870;2022-07-29T03:28:15;3.42;;;2.35;;
28828;SDS011;15966;51.540;11.870;2022-07-29T03:30:41;4.72;;;3.05;;
28828;SDS011;15966;51.540;11.870;2022-07-29T03:33:07;3.35;;;1.75;;
28828;SDS011;15966;51.540;11.870;2022-07-29T03:35:34;5.25;;;1.90;;
28828;SDS011;15966;51.540;11.870;2022-07-29T03:38:00;6.72;;;1.90;;
28828;SDS011;15966;51.540;11.870;2022-07-29T03:40:28;5.50;;;2.60;;
28828;SDS011;15966;51.540;11.870;2022-07-29T03:42:58;3.35;;;2.00;;
28828;SDS011;15966;51.540;11.870;2022-07-29T03:45:25;3.27;;;1.93;;
28828;SDS011;15966;51.540;11.870;2022-07-29T03:47:55;2.25;;;1.70;;
28828;SDS011;15966;51.540;11.870;2022-07-29T03:50:24;4.10;;;1.58;;
28828;SDS011;15966;51.540;11.870;2022-07-29T03:52:50;4.65;;;2.38;;
28828;SDS011;15966;51.540;11.870;2022-07-29T03:55:16;10.68;;;2.25;;
28828;SDS011;15966;51.540;11.870;2022-07-29T03:57:43;1.88;;;1.50;;
28828;SDS011;15966;51.540;11.870;2022-07-29T04:00:10;6.60;;;2.05;;
28828;SDS011;15966;51.540;11.870;2022-07-29T04:02:37;6.93;;;1.80;;
28828;SDS011;15966;51.540;11.870;2022-07-29T04:05:04;4.40;;;2.45;;
28828;SDS011;15966;51.540;11.870;2022-07-29T04:07:30;6.80;;;2.30;;
28828;SDS011;15966;51.540;11.870;2022-07-29T04:09:56;2.95;;;1.63;;
28828;SDS011;15966;51.540;11.870;2022-07-29T04:12:22;4.80;;;2.33;;
28828;SDS011;15966;51.540;11.870;2022-07-29T04:14:48;2.63;;;1.88;;
28828;SDS011;15966;51.540;11.870;2022-07-29T04:17:15;3.47;;;1.95;;
28828;SDS011;15966;51.540;11.870;2022-07-29T04:19:41;3.05;;;1.80;;
28828;SDS011;15966;51.540;11.870;2022-07-29T04:22:07;5.47;;;2.47;;
28828;SDS011;15966;51.540;11.870;2022-07-29T04:24:34;3.92;;;2.53;;
28828;SDS011;15966;51.540;11.870;2022-07-29T04:27:00;4.37;;;2.10;;
28828;SDS011;15966;51.540;11.870;2022-07-29T04:29:26;7.35;;;2.92;;
28828;SDS011;15966;51.540;11.870;2022-07-29T04:31:52;2.25;;;1.90;;
28828;SDS011;15966;51.540;11.870;2022-07-29T04:34:18;4.53;;;2.03;;
28828;SDS011;15966;51.540;11.870;2022-07-29T04:36:44;4.90;;;2.03;;
28828;SDS011;15966;51.540;11.870;2022-07-29T04:39:10;6.75;;;2.35;;
28828;SDS011;15966;51.540;11.870;2022-07-29T04:41:36;2.15;;;1.42;;
28828;SDS011;15966;51.540;11.870;2022-07-29T04:44:03;7.43;;;2.28;;
28828;SDS011;15966;51.540;11.870;2022-07-29T04:46:30;5.82;;;2.25;;
28828;SDS011;15966;51.540;11.870;2022-07-29T04:48:56;5.43;;;2.33;;
28828;SDS011;15966;51.540;11.870;2022-07-29T04:51:22;4.18;;;2.60;;
28828;SDS011;15966;51.540;11.870;2022-07-29T04:53:48;11.15;;;2.47;;
28828;SDS011;15966;51.540;11.870;2022-07-29T04:56:15;3.47;;;2.00;;
28828;SDS011;15966;51.540;11.870;2022-07-29T04:58:41;4.43;;;2.35;;
28828;SDS011;15966;51.540;11.870;2022-07-29T05:01:07;6.10;;;2.40;;
28828;SDS011;15966;51.540;11.870;2022-07-29T05:03:33;7.18;;;2.53;;
28828;SDS011;15966;51.540;11.870;2022-07-29T05:05:59;1.52;;;1.42;;
28828;SDS011;15966;51.540;11.870;2022-07-29T05:08:25;11.82;;;3.90;;
28828;SDS011;15966;51.540;11.870;2022-07-29T05:10:51;7.90;;;2.38;;
28828;SDS011;15966;51.540;11.870;2022-07-29T05:13:17;17.40;;;2.97;;
28828;SDS011;15966;51.540;11.870;2022-07-29T05:15:43;19.70;;;4.03;;
28828;SDS011;15966;51.540;11.870;2022-07-29T05:18:09;15.57;;;3.30;;
28828;SDS011;15966;51.540;11.870;2022-07-29T05:20:35;4.53;;;2.65;;
28828;SDS011;15966;51.540;11.870;2022-07-29T05:23:02;3.67;;;1.63;;
28828;SDS011;15966;51.540;11.870;2022-07-29T05:25:28;3.70;;;1.63;;
28828;SDS011;15966;51.540;11.870;2022-07-29T05:27:55;6.22;;;2.53;;
28828;SDS011;15966;51.540;11.870;2022-07-29T05:30:21;4.60;;;2.08;;
28828;SDS011;15966;51.540;11.870;2022-07-29T05:32:48;3.17;;;1.67;;
28828;SDS011;15966;51.540;11.870;2022-07-29T05:35:14;2.50;;;1.80;;
28828;SDS011;15966;51.540;11.870;2022-07-29T05:37:40;6.32;;;1.85;;
28828;SDS011;15966;51.540;11.870;2022-07-29T05:40:07;4.18;;;1.80;;
28828;SDS011;15966;51.540;11.870;2022-07-29T05:42:33;4.72;;;2.10;;
28828;SDS011;15966;51.540;11.870;2022-07-29T05:44:59;4.70;;;2.28;;
28828;SDS011;15966;51.540;11.870;2022-07-29T05:47:26;8.83;;;2.40;;
28828;SDS011;15966;51.540;11.870;2022-07-29T05:49:52;5.40;;;2.08;;
28828;SDS011;15966;51.540;11.870;2022-07-29T05:52:18;3.53;;;2.03;;
28828;SDS011;15966;51.540;11.870;2022-07-29T05:54:45;3.08;;;1.63;;
28828;SDS011;15966;51.540;11.870;2022-07-29T05:57:14;4.00;;;1.85;;
28828;SDS011;15966;51.540;11.870;2022-07-29T05:59:41;4.38;;;1.90;;
28828;SDS011;15966;51.540;11.870;2022-07-29T06:02:07;3.28;;;2.30;;
28828;SDS011;15966;51.540;11.870;2022-07-29T06:04:33;3.58;;;1.77;;
28828;SDS011;15966;51.540;11.870;2022-07-29T06:06:59;4.68;;;2.22;;
28828;SDS011;15966;51.540;11.870;2022-07-29T06:09:26;3.10;;;2.20;;
28828;SDS011;15966;51.540;11.870;2022-07-29T06:11:52;7.47;;;2.08;;
28828;SDS011;15966;51.540;11.870;2022-07-29T06:14:18;3.60;;;1.70;;
28828;SDS011;15966;51.540;11.870;2022-07-29T06:16:45;3.50;;;2.35;;
28828;SDS011;15966;51.540;11.870;2022-07-29T06:19:11;3.95;;;1.90;;
28828;SDS011;15966;51.540;11.870;2022-07-29T06:21:41;3.08;;;2.30;;
28828;SDS011;15966;51.540;11.870;2022-07-29T06:24:07;6.07;;;2.17;;
28828;SDS011;15966;51.540;11.870;2022-07-29T06:26:33;5.65;;;2.08;;
28828;SDS011;15966;51.540;11.870;2022-07-29T06:28:59;3.67;;;1.70;;
28828;SDS011;15966;51.540;11.870;2022-07-29T06:31:25;3.50;;;2.22;;
28828;SDS011;15966;51.540;11.870;2022-07-29T06:33:51;8.05;;;2.55;;
28828;SDS011;15966;51.540;11.870;2022-07-29T06:36:17;3.90;;;2.08;;
28828;SDS011;15966;51.540;11.870;2022-07-29T06:38:43;2.80;;;1.90;;
28828;SDS011;15966;51.540;11.870;2022-07-29T06:41:09;5.63;;;2.75;;
28828;SDS011;15966;51.540;11.870;2022-07-29T06:46:05;3.50;;;1.83;;
28828;SDS011;15966;51.540;11.870;2022-07-29T06:48:33;4.75;;;2.80;;
28828;SDS011;15966;51.540;11.870;2022-07-29T06:50:59;4.67;;;2.40;;
28828;SDS011;15966;51.540;11.870;2022-07-29T06:53:26;4.57;;;2.05;;
28828;SDS011;15966;51.540;11.870;2022-07-29T06:55:53;4.20;;;2.05;;
28828;SDS011;15966;51.540;11.870;2022-07-29T06:58:19;3.53;;;1.92;;
28828;SDS011;15966;51.540;11.870;2022-07-29T07:00:46;5.68;;;2.58;;
28828;SDS011;15966;51.540;11.870;2022-07-29T07:03:12;3.60;;;2.08;;
28828;SDS011;15966;51.540;11.870;2022-07-29T07:05:39;7.30;;;2.47;;
28828;SDS011;15966;51.540;11.870;2022-07-29T07:08:05;4.28;;;2.53;;
28828;SDS011;15966;51.540;11.870;2022-07-29T07:10:32;5.40;;;2.35;;
28828;SDS011;15966;51.540;11.870;2022-07-29T07:12:58;4.60;;;1.98;;
28828;SDS011;15966;51.540;11.870;2022-07-29T07:15:25;2.38;;;1.67;;
28828;SDS011;15966;51.540;11.870;2022-07-29T07:17:52;2.10;;;1.67;;
28828;SDS011;15966;51.540;11.870;2022-07-29T07:20:18;3.38;;;1.85;;
28828;SDS011;15966;51.540;11.870;2022-07-29T07:22:44;8.07;;;2.45;;
28828;SDS011;15966;51.540;11.870;2022-07-29T07:25:10;3.78;;;2.03;;
28828;SDS011;15966;51.540;11.870;2022-07-29T07:27:37;4.35;;;2.42;;
28828;SDS011;15966;51.540;11.870;2022-07-29T07:30:06;5.43;;;2.30;;
28828;SDS011;15966;51.540;11.870;2022-07-29T07:32:33;5.72;;;2.70;;
28828;SDS011;15966;51.540;11.870;2022-07-29T07:34:59;5.85;;;2.40;;
28828;SDS011;15966;51.540;11.870;2022-07-29T07:37:25;5.40;;;2.58;;
28828;SDS011;15966;51.540;11.870;2022-07-29T07:39:52;2.40;;;1.75;;
28828;SDS011;15966;51.540;11.870;2022-07-29T07:42:18;8.07;;;3.03;;
28828;SDS011;15966;51.540;11.870;2022-07-29T07:44:45;5.25;;;1.92;;
28828;SDS011;15966;51.540;11.870;2022-07-29T07:47:11;8.65;;;2.17;;
28828;SDS011;15966;51.540;11.870;2022-07-29T07:49:37;6.00;;;2.30;;
28828;SDS011;15966;51.540;11.870;2022-07-29T07:52:04;11.15;;;2.97;;
28828;SDS011;15966;51.540;11.870;2022-07-29T07:54:30;6.72;;;2.53;;
28828;SDS011;15966;51.540;11.870;2022-07-29T07:56:56;6.55;;;1.95;;
28828;SDS011;15966;51.540;11.870;2022-07-29T07:59:22;8.57;;;2.83;;
28828;SDS011;15966;51.540;11.870;2022-07-29T08:01:49;6.05;;;3.20;;
28828;SDS011;15966;51.540;11.870;2022-07-29T08:04:15;5.78;;;3.22;;
28828;SDS011;15966;51.540;11.870;2022-07-29T08:06:41;5.40;;;2.83;;
28828;SDS011;15966;51.540;11.870;2022-07-29T08:09:07;6.82;;;3.25;;
28828;SDS011;15966;51.540;11.870;2022-07-29T08:11:33;14.10;;;3.97;;
28828;SDS011;15966;51.540;11.870;2022-07-29T08:13:59;4.03;;;3.08;;
28828;SDS011;15966;51.540;11.870;2022-07-29T08:16:26;5.37;;;3.27;;
28828;SDS011;15966;51.540;11.870;2022-07-29T08:18:53;6.33;;;3.60;;
28828;SDS011;15966;51.540;11.870;2022-07-29T08:21:21;12.65;;;5.55;;
28828;SDS011;15966;51.540;11.870;2022-07-29T08:23:48;9.25;;;5.45;;
28828;SDS011;15966;51.540;11.870;2022-07-29T08:26:17;9.48;;;4.93;;
28828;SDS011;15966;51.540;11.870;2022-07-29T08:28:44;11.98;;;6.03;;
28828;SDS011;15966;51.540;11.870;2022-07-29T08:31:14;13.02;;;6.82;;
28828;SDS011;15966;51.540;11.870;2022-07-29T08:33:41;8.23;;;5.55;;
28828;SDS011;15966;51.540;11.870;2022-07-29T08:36:07;9.93;;;6.20;;
28828;SDS011;15966;51.540;11.870;2022-07-29T08:38:33;7.35;;;4.60;;
28828;SDS011;15966;51.540;11.870;2022-07-29T08:41:00;10.57;;;6.65;;
28828;SDS011;15966;51.540;11.870;2022-07-29T08:43:27;7.22;;;5.30;;
28828;SDS011;15966;51.540;11.870;2022-07-29T08:48:20;9.50;;;4.50;;
28828;SDS011;15966;51.540;11.870;2022-07-29T08:50:50;7.18;;;4.55;;
28828;SDS011;15966;51.540;11.870;2022-07-29T08:53:20;7.03;;;4.55;;
28828;SDS011;15966;51.540;11.870;2022-07-29T08:55:49;6.38;;;4.32;;
28828;SDS011;15966;51.540;11.870;2022-07-29T08:58:15;9.25;;;4.65;;
28828;SDS011;15966;51.540;11.870;2022-07-29T09:00:43;7.90;;;4.57;;
28828;SDS011;15966;51.540;11.870;2022-07-29T09:03:18;7.20;;;3.90;;
28828;SDS011;15966;51.540;11.870;2022-07-29T09:05:45;7.80;;;4.82;;
28828;SDS011;15966;51.540;11.870;2022-07-29T09:08:15;7.95;;;4.10;;
28828;SDS011;15966;51.540;11.870;2022-07-29T09:10:42;10.60;;;4.40;;
28828;SDS011;15966;51.540;11.870;2022-07-29T09:15:35;7.20;;;3.15;;
28828;SDS011;15966;51.540;11.870;2022-07-29T09:18:01;8.45;;;4.18;;
28828;SDS011;15966;51.540;11.870;2022-07-29T09:20:27;6.75;;;3.95;;
28828;SDS011;15966;51.540;11.870;2022-07-29T09:23:12;4.55;;;3.28;;
28828;SDS011;15966;51.540;11.870;2022-07-29T09:25:39;6.35;;;3.85;;
28828;SDS011;15966;51.540;11.870;2022-07-29T09:28:10;5.40;;;3.08;;
28828;SDS011;15966;51.540;11.870;2022-07-29T09:30:51;6.90;;;3.35;;
28828;SDS011;15966;51.540;11.870;2022-07-29T09:33:18;4.57;;;3.17;;
28828;SDS011;15966;51.540;11.870;2022-07-29T09:38:22;20.30;;;3.95;;
28828;SDS011;15966;51.540;11.870;2022-07-29T09:40:58;5.90;;;2.65;;
28828;SDS011;15966;51.540;11.870;2022-07-29T09:43:25;11.40;;;3.97;;
28828;SDS011;15966;51.540;11.870;2022-07-29T09:45:52;8.25;;;2.80;;
28828;SDS011;15966;51.540;11.870;2022-07-29T09:48:19;8.07;;;3.05;;
28828;SDS011;15966;51.540;11.870;2022-07-29T09:50:46;4.15;;;2.35;;
28828;SDS011;15966;51.540;11.870;2022-07-29T09:53:32;5.95;;;2.50;;
28828;SDS011;15966;51.540;11.870;2022-07-29T09:55:59;2.85;;;2.25;;
28828;SDS011;15966;51.540;11.870;2022-07-29T09:58:26;7.75;;;2.72;;
28828;SDS011;15966;51.540;11.870;2022-07-29T10:00:53;7.35;;;2.63;;
28828;SDS011;15966;51.540;11.870;2022-07-29T10:03:20;9.00;;;2.30;;
28828;SDS011;15966;51.540;11.870;2022-07-29T10:05:47;4.63;;;2.15;;
28828;SDS011;15966;51.540;11.870;2022-07-29T10:08:32;12.95;;;2.70;;
28828;SDS011;15966;51.540;11.870;2022-07-29T10:11:11;8.10;;;2.72;;
28828;SDS011;15966;51.540;11.870;2022-07-29T10:13:39;9.45;;;2.50;;
28828;SDS011;15966;51.540;11.870;2022-07-29T10:16:06;6.57;;;2.67;;
28828;SDS011;15966;51.540;11.870;2022-07-29T10:18:33;7.22;;;2.53;;
28828;SDS011;15966;51.540;11.870;2022-07-29T10:21:00;5.60;;;2.13;;
28828;SDS011;15966;51.540;11.870;2022-07-29T10:23:27;5.60;;;2.20;;
28828;SDS011;15966;51.540;11.870;2022-07-29T10:25:54;3.28;;;2.40;;
28828;SDS011;15966;51.540;11.870;2022-07-29T10:28:20;5.60;;;2.63;;
28828;SDS011;15966;51.540;11.870;2022-07-29T10:30:46;5.75;;;2.90;;
28828;SDS011;15966;51.540;11.870;2022-07-29T10:33:26;2.83;;;2.42;;
28828;SDS011;15966;51.540;11.870;2022-07-29T10:39:10;4.10;;;2.17;;
28828;SDS011;15966;51.540;11.870;2022-07-29T10:44:40;5.45;;;3.03;;
28828;SDS011;15966;51.540;11.870;2022-07-29T10:47:07;5.13;;;3.22;;
28828;SDS011;15966;51.540;11.870;2022-07-29T10:49:54;8.85;;;2.80;;
28828;SDS011;15966;51.540;11.870;2022-07-29T10:52:24;5.05;;;3.15;;
28828;SDS011;15966;51.540;11.870;2022-07-29T10:55:03;4.63;;;1.80;;
28828;SDS011;15966;51.540;11.870;2022-07-29T10:57:30;7.68;;;2.75;;
28828;SDS011;15966;51.540;11.870;2022-07-29T11:07:32;4.28;;;3.00;;
28828;SDS011;15966;51.540;11.870;2022-07-29T11:23:23;4.80;;;3.08;;
28828;SDS011;15966;51.540;11.870;2022-07-29T11:28:39;7.03;;;3.17;;
28828;SDS011;15966;51.540;11.870;2022-07-29T11:31:13;4.22;;;2.70;;
28828;SDS011;15966;51.540;11.870;2022-07-29T11:33:44;4.25;;;2.53;;
28828;SDS011;15966;51.540;11.870;2022-07-29T11:36:11;5.35;;;2.60;;
28828;SDS011;15966;51.540;11.870;2022-07-29T11:38:38;16.85;;;3.17;;
28828;SDS011;15966;51.540;11.870;2022-07-29T11:43:53;5.32;;;2.72;;
28828;SDS011;15966;51.540;11.870;2022-07-29T11:49:08;7.80;;;2.78;;
28828;SDS011;15966;51.540;11.870;2022-07-29T11:51:35;7.40;;;2.50;;
28828;SDS011;15966;51.540;11.870;2022-07-29T11:54:02;4.68;;;3.17;;
28828;SDS011;15966;51.540;11.870;2022-07-29T11:56:30;5.07;;;2.33;;
28828;SDS011;15966;51.540;11.870;2022-07-29T11:59:06;11.00;;;3.38;;
28828;SDS011;15966;51.540;11.870;2022-07-29T12:01:35;3.63;;;2.03;;
28828;SDS011;15966;51.540;11.870;2022-07-29T12:04:02;5.00;;;2.20;;
28828;SDS011;15966;51.540;11.870;2022-07-29T12:06:29;4.47;;;2.40;;
28828;SDS011;15966;51.540;11.870;2022-07-29T12:08:56;6.53;;;2.40;;
28828;SDS011;15966;51.540;11.870;2022-07-29T12:11:22;6.35;;;2.58;;
28828;SDS011;15966;51.540;11.870;2022-07-29T12:13:52;6.60;;;2.83;;
28828;SDS011;15966;51.540;11.870;2022-07-29T12:16:19;5.63;;;2.53;;
28828;SDS011;15966;51.540;11.870;2022-07-29T12:21:21;4.70;;;2.20;;
28828;SDS011;15966;51.540;11.870;2022-07-29T12:23:54;4.43;;;2.63;;
28828;SDS011;15966;51.540;11.870;2022-07-29T12:26:20;9.13;;;3.15;;
28828;SDS011;15966;51.540;11.870;2022-07-29T12:28:46;3.37;;;1.83;;
28828;SDS011;15966;51.540;11.870;2022-07-29T12:31:13;3.10;;;2.15;;
28828;SDS011;15966;51.540;11.870;2022-07-29T12:33:40;3.20;;;2.10;;
28828;SDS011;15966;51.540;11.870;2022-07-29T12:36:06;5.50;;;2.28;;
28828;SDS011;15966;51.540;11.870;2022-07-29T12:38:33;7.45;;;2.47;;
28828;SDS011;15966;51.540;11.870;2022-07-29T12:40:59;6.97;;;2.40;;
28828;SDS011;15966;51.540;11.870;2022-07-29T12:43:26;3.58;;;2.65;;
28828;SDS011;15966;51.540;11.870;2022-07-29T12:45:56;3.00;;;2.10;;
28828;SDS011;15966;51.540;11.870;2022-07-29T12:48:38;5.38;;;2.65;;
28828;SDS011;15966;51.540;11.870;2022-07-29T12:51:06;3.13;;;2.00;;
28828;SDS011;15966;51.540;11.870;2022-07-29T12:53:33;5.05;;;2.35;;
28828;SDS011;15966;51.540;11.870;2022-07-29T12:56:00;6.05;;;2.67;;
28828;SDS011;15966;51.540;11.870;2022-07-29T12:58:36;3.65;;;2.42;;
28828;SDS011;15966;51.540;11.870;2022-07-29T13:01:04;4.88;;;2.22;;
28828;SDS011;15966;51.540;11.870;2022-07-29T13:03:58;2.30;;;2.10;;
28828;SDS011;15966;51.540;11.870;2022-07-29T13:06:40;3.38;;;1.88;;
28828;SDS011;15966;51.540;11.870;2022-07-29T13:16:27;5.32;;;2.40;;
28828;SDS011;15966;51.540;11.870;2022-07-29T13:19:10;2.30;;;2.08;;
28828;SDS011;15966;51.540;11.870;2022-07-29T13:21:36;10.13;;;3.13;;
28828;SDS011;15966;51.540;11.870;2022-07-29T13:24:04;1.80;;;1.33;;
28828;SDS011;15966;51.540;11.870;2022-07-29T13:26:31;5.60;;;2.42;;
28828;SDS011;15966;51.540;11.870;2022-07-29T13:28:57;2.40;;;1.75;;
28828;SDS011;15966;51.540;11.870;2022-07-29T13:31:23;2.20;;;2.00;;
28828;SDS011;15966;51.540;11.870;2022-07-29T13:33:49;5.80;;;3.10;;
28828;SDS011;15966;51.540;11.870;2022-07-29T13:36:16;3.90;;;1.97;;
28828;SDS011;15966;51.540;11.870;2022-07-29T13:38:42;2.70;;;1.85;;
28828;SDS011;15966;51.540;11.870;2022-07-29T13:41:08;3.60;;;1.85;;
28828;SDS011;15966;51.540;11.870;2022-07-29T13:43:34;2.90;;;1.83;;
28828;SDS011;15966;51.540;11.870;2022-07-29T13:46:00;1.93;;;1.73;;
28828;SDS011;15966;51.540;11.870;2022-07-29T13:48:26;4.47;;;2.47;;
28828;SDS011;15966;51.540;11.870;2022-07-29T13:50:53;2.07;;;1.70;;
28828;SDS011;15966;51.540;11.870;2022-07-29T13:53:19;4.57;;;2.35;;
28828;SDS011;15966;51.540;11.870;2022-07-29T13:55:45;5.27;;;2.27;;
28828;SDS011;15966;51.540;11.870;2022-07-29T13:58:11;5.00;;;2.53;;
28828;SDS011;15966;51.540;11.870;2022-07-29T14:00:37;3.78;;;2.42;;
28828;SDS011;15966;51.540;11.870;2022-07-29T14:03:03;3.30;;;2.23;;
28828;SDS011;15966;51.540;11.870;2022-07-29T14:05:31;4.03;;;2.30;;
28828;SDS011;15966;51.540;11.870;2022-07-29T14:07:57;2.17;;;1.83;;
28828;SDS011;15966;51.540;11.870;2022-07-29T14:10:23;2.33;;;1.50;;
28828;SDS011;15966;51.540;11.870;2022-07-29T14:12:49;5.30;;;2.53;;
28828;SDS011;15966;51.540;11.870;2022-07-29T14:15:15;3.87;;;1.70;;
28828;SDS011;15966;51.540;11.870;2022-07-29T14:17:42;3.28;;;2.28;;
28828;SDS011;15966;51.540;11.870;2022-07-29T14:20:08;3.90;;;2.67;;
28828;SDS011;15966;51.540;11.870;2022-07-29T14:22:34;5.53;;;2.63;;
28828;SDS011;15966;51.540;11.870;2022-07-29T14:25:00;3.60;;;2.58;;
28828;SDS011;15966;51.540;11.870;2022-07-29T14:27:26;4.97;;;1.83;;
28828;SDS011;15966;51.540;11.870;2022-07-29T14:29:52;6.30;;;2.83;;
28828;SDS011;15966;51.540;11.870;2022-07-29T14:32:18;2.55;;;1.80;;
28828;SDS011;15966;51.540;11.870;2022-07-29T14:34:44;3.17;;;2.17;;
28828;SDS011;15966;51.540;11.870;2022-07-29T14:37:10;4.03;;;2.50;;
28828;SDS011;15966;51.540;11.870;2022-07-29T14:39:37;2.28;;;2.08;;
28828;SDS011;15966;51.540;11.870;2022-07-29T14:42:03;5.97;;;3.05;;
28828;SDS011;15966;51.540;11.870;2022-07-29T14:44:29;4.05;;;2.78;;
28828;SDS011;15966;51.540;11.870;2022-07-29T14:46:58;7.88;;;2.38;;
28828;SDS011;15966;51.540;11.870;2022-07-29T14:49:25;3.17;;;2.03;;
28828;SDS011;15966;51.540;11.870;2022-07-29T14:51:51;3.45;;;2.33;;
28828;SDS011;15966;51.540;11.870;2022-07-29T14:54:17;7.40;;;1.85;;
28828;SDS011;15966;51.540;11.870;2022-07-29T14:56:43;16.77;;;3.07;;
28828;SDS011;15966;51.540;11.870;2022-07-29T14:59:09;11.23;;;3.20;;
28828;SDS011;15966;51.540;11.870;2022-07-29T15:01:36;2.87;;;1.60;;
28828;SDS011;15966;51.540;11.870;2022-07-29T15:04:02;4.88;;;2.15;;
28828;SDS011;15966;51.540;11.870;2022-07-29T15:06:28;4.60;;;2.00;;
28828;SDS011;15966;51.540;11.870;2022-07-29T15:08:54;5.40;;;2.60;;
28828;SDS011;15966;51.540;11.870;2022-07-29T15:11:20;3.05;;;2.30;;
28828;SDS011;15966;51.540;11.870;2022-07-29T15:13:46;5.43;;;2.28;;
28828;SDS011;15966;51.540;11.870;2022-07-29T15:16:12;3.05;;;2.15;;
28828;SDS011;15966;51.540;11.870;2022-07-29T15:18:38;1.97;;;1.70;;
28828;SDS011;15966;51.540;11.870;2022-07-29T15:21:05;5.93;;;2.00;;
28828;SDS011;15966;51.540;11.870;2022-07-29T15:23:34;8.57;;;3.30;;
28828;SDS011;15966;51.540;11.870;2022-07-29T15:26:01;2.92;;;1.90;;
28828;SDS011;15966;51.540;11.870;2022-07-29T15:28:27;2.83;;;1.90;;
28828;SDS011;15966;51.540;11.870;2022-07-29T15:30:53;4.72;;;2.90;;
28828;SDS011;15966;51.540;11.870;2022-07-29T15:33:19;3.88;;;1.83;;
28828;SDS011;15966;51.540;11.870;2022-07-29T15:35:46;5.20;;;2.70;;
28828;SDS011;15966;51.540;11.870;2022-07-29T15:38:12;4.80;;;2.50;;
28828;SDS011;15966;51.540;11.870;2022-07-29T15:40:38;5.60;;;2.40;;
28828;SDS011;15966;51.540;11.870;2022-07-29T15:43:08;9.27;;;2.60;;
28828;SDS011;15966;51.540;11.870;2022-07-29T15:45:38;2.95;;;2.35;;
28828;SDS011;15966;51.540;11.870;2022-07-29T15:48:07;3.05;;;2.03;;